sensor_id;sensor_type;location;lat;lon;timestamp;P1;durP1;ratioP1;P2;durP2;ratioP2
3865;SDS011;1948;53.250;10.412;2022-09-09T00:01:08;40.73;;;21.57;;
3865;SDS011;1948;53.250;10.412;2022-09-09T00:12:34;32.77;;;20.33;;
3865;SDS011;1948;53.250;10.412;2022-09-09T00:15:12;31.20;;;20.03;;
3865;SDS011;1948;53.250;10.412;2022-09-09T00:20:58;27.33;;;19.77;;
3865;SDS011;1948;53.250;10.412;2022-09-09T00:23:32;27.90;;;19.83;;
3865;SDS011;1948;53.250;10.412;2022-09-09T00:26:14;24.70;;;19.27;;
3865;SDS011;1948;53.250;10.412;2022-09-09T00:31:57;32.90;;;20.60;;
3865;SDS011;1948;53.250;10.412;2022-09-09T00:34:36;31.40;;;21.70;;
3865;SDS011;1948;53.250;10.412;2022-09-09T00:37:12;32.47;;;21.20;;
3865;SDS011;1948;53.250;10.412;2022-09-09T00:39:42;38.83;;;20.10;;
3865;SDS011;1948;53.250;10.412;2022-09-09T00:45:31;62.27;;;21.63;;
3865;SDS011;1948;53.250;10.412;2022-09-09T00:48:13;39.43;;;21.57;;
3865;SDS011;1948;53.250;10.412;2022-09-09T00:56:30;48.10;;;23.90;;
3865;SDS011;1948;53.250;10.412;2022-09-09T01:00:16;130.33;;;23.57;;
3865;SDS011;1948;53.250;10.412;2022-09-09T01:06:01;44.70;;;22.83;;
3865;SDS011;1948;53.250;10.412;2022-09-09T01:08:41;36.47;;;23.60;;
3865;SDS011;1948;53.250;10.412;2022-09-09T01:11:25;267.07;;;27.00;;
3865;SDS011;1948;53.250;10.412;2022-09-09T01:17:11;162.07;;;25.70;;
3865;SDS011;1948;53.250;10.412;2022-09-09T01:28:35;254.73;;;23.80;;
3865;SDS011;1948;53.250;10.412;2022-09-09T01:31:04;442.17;;;26.37;;
3865;SDS011;1948;53.250;10.412;2022-09-09T01:33:35;306.30;;;26.37;;
3865;SDS011;1948;53.250;10.412;2022-09-09T01:38:40;469.70;;;29.63;;
3865;SDS011;1948;53.250;10.412;2022-09-09T01:41:12;143.47;;;21.90;;
3865;SDS011;1948;53.250;10.412;2022-09-09T01:43:43;152.27;;;22.60;;
3865;SDS011;1948;53.250;10.412;2022-09-09T01:46:10;227.73;;;23.20;;
3865;SDS011;1948;53.250;10.412;2022-09-09T01:48:42;139.13;;;22.23;;
3865;SDS011;1948;53.250;10.412;2022-09-09T01:51:09;246.93;;;23.63;;
3865;SDS011;1948;53.250;10.412;2022-09-09T01:53:37;242.30;;;26.20;;
3865;SDS011;1948;53.250;10.412;2022-09-09T01:56:20;164.57;;;21.57;;
3865;SDS011;1948;53.250;10.412;2022-09-09T02:01:53;86.73;;;19.50;;
3865;SDS011;1948;53.250;10.412;2022-09-09T02:05:25;72.83;;;19.83;;
3865;SDS011;1948;53.250;10.412;2022-09-09T02:10:45;42.37;;;18.63;;
3865;SDS011;1948;53.250;10.412;2022-09-09T02:13:20;32.83;;;18.33;;
3865;SDS011;1948;53.250;10.412;2022-09-09T02:15:59;33.90;;;20.20;;
3865;SDS011;1948;53.250;10.412;2022-09-09T02:21:39;25.27;;;17.97;;
3865;SDS011;1948;53.250;10.412;2022-09-09T02:24:08;26.30;;;18.63;;
3865;SDS011;1948;53.250;10.412;2022-09-09T02:26:41;32.80;;;19.43;;
3865;SDS011;1948;53.250;10.412;2022-09-09T02:29:22;27.37;;;18.90;;
3865;SDS011;1948;53.250;10.412;2022-09-09T02:31:54;25.83;;;18.20;;
3865;SDS011;1948;53.250;10.412;2022-09-09T02:34:33;31.53;;;19.47;;
3865;SDS011;1948;53.250;10.412;2022-09-09T02:37:08;27.60;;;18.57;;
3865;SDS011;1948;53.250;10.412;2022-09-09T02:39:37;25.80;;;17.80;;
3865;SDS011;1948;53.250;10.412;2022-09-09T02:42:04;31.93;;;18.00;;
3865;SDS011;1948;53.250;10.412;2022-09-09T02:44:31;29.77;;;18.70;;
3865;SDS011;1948;53.250;10.412;2022-09-09T02:52:42;20.83;;;16.90;;
3865;SDS011;1948;53.250;10.412;2022-09-09T02:55:52;22.47;;;16.87;;
3865;SDS011;1948;53.250;10.412;2022-09-09T02:58:42;22.97;;;17.60;;
3865;SDS011;1948;53.250;10.412;2022-09-09T03:01:14;23.80;;;18.43;;
3865;SDS011;1948;53.250;10.412;2022-09-09T03:03:42;18.40;;;15.83;;
3865;SDS011;1948;53.250;10.412;2022-09-09T03:06:10;19.10;;;16.70;;
3865;SDS011;1948;53.250;10.412;2022-09-09T03:08:37;21.83;;;15.93;;
3865;SDS011;1948;53.250;10.412;2022-09-09T03:11:14;20.23;;;16.00;;
3865;SDS011;1948;53.250;10.412;2022-09-09T03:13:45;26.63;;;16.40;;
3865;SDS011;1948;53.250;10.412;2022-09-09T03:16:15;17.07;;;15.13;;
3865;SDS011;1948;53.250;10.412;2022-09-09T03:18:42;22.80;;;16.10;;
3865;SDS011;1948;53.250;10.412;2022-09-09T03:21:12;26.83;;;17.90;;
3865;SDS011;1948;53.250;10.412;2022-09-09T03:23:46;18.47;;;16.37;;
3865;SDS011;1948;53.250;10.412;2022-09-09T03:26:13;27.80;;;16.30;;
3865;SDS011;1948;53.250;10.412;2022-09-09T03:28:41;18.37;;;14.87;;
3865;SDS011;1948;53.250;10.412;2022-09-09T03:31:09;20.53;;;15.93;;
3865;SDS011;1948;53.250;10.412;2022-09-09T03:33:37;20.07;;;15.57;;
3865;SDS011;1948;53.250;10.412;2022-09-09T03:36:07;17.07;;;15.27;;
3865;SDS011;1948;53.250;10.412;2022-09-09T03:38:37;27.87;;;16.97;;
3865;SDS011;1948;53.250;10.412;2022-09-09T03:41:04;15.90;;;14.30;;
3865;SDS011;1948;53.250;10.412;2022-09-09T03:43:35;19.30;;;15.30;;
3865;SDS011;1948;53.250;10.412;2022-09-09T03:46:03;20.23;;;14.70;;
3865;SDS011;1948;53.250;10.412;2022-09-09T03:48:31;18.57;;;14.20;;
3865;SDS011;1948;53.250;10.412;2022-09-09T03:51:00;18.27;;;14.93;;
3865;SDS011;1948;53.250;10.412;2022-09-09T03:53:30;16.60;;;14.40;;
3865;SDS011;1948;53.250;10.412;2022-09-09T03:55:58;19.80;;;14.63;;
3865;SDS011;1948;53.250;10.412;2022-09-09T03:58:26;17.57;;;14.10;;
3865;SDS011;1948;53.250;10.412;2022-09-09T04:03:27;17.33;;;12.97;;
3865;SDS011;1948;53.250;10.412;2022-09-09T04:05:58;15.00;;;13.10;;
3865;SDS011;1948;53.250;10.412;2022-09-09T04:08:28;21.60;;;15.03;;
3865;SDS011;1948;53.250;10.412;2022-09-09T04:10:58;17.90;;;13.20;;
3865;SDS011;1948;53.250;10.412;2022-09-09T04:13:32;19.40;;;12.80;;
3865;SDS011;1948;53.250;10.412;2022-09-09T04:16:06;14.40;;;12.50;;
3865;SDS011;1948;53.250;10.412;2022-09-09T04:18:37;13.70;;;12.20;;
3865;SDS011;1948;53.250;10.412;2022-09-09T04:21:03;15.63;;;12.47;;
3865;SDS011;1948;53.250;10.412;2022-09-09T04:23:33;13.23;;;11.90;;
3865;SDS011;1948;53.250;10.412;2022-09-09T04:26:02;13.73;;;11.73;;
3865;SDS011;1948;53.250;10.412;2022-09-09T04:28:31;15.43;;;11.70;;
3865;SDS011;1948;53.250;10.412;2022-09-09T04:31:11;12.97;;;11.00;;
3865;SDS011;1948;53.250;10.412;2022-09-09T04:33:50;15.10;;;12.00;;
3865;SDS011;1948;53.250;10.412;2022-09-09T04:36:17;17.63;;;11.70;;
3865;SDS011;1948;53.250;10.412;2022-09-09T04:38:45;19.33;;;10.40;;
3865;SDS011;1948;53.250;10.412;2022-09-09T04:41:14;14.70;;;11.43;;
3865;SDS011;1948;53.250;10.412;2022-09-09T04:43:44;12.93;;;10.10;;
3865;SDS011;1948;53.250;10.412;2022-09-09T04:46:11;15.03;;;10.50;;
3865;SDS011;1948;53.250;10.412;2022-09-09T04:48:38;15.73;;;10.67;;
3865;SDS011;1948;53.250;10.412;2022-09-09T04:51:09;11.63;;;10.40;;
3865;SDS011;1948;53.250;10.412;2022-09-09T04:53:41;11.10;;;10.10;;
3865;SDS011;1948;53.250;10.412;2022-09-09T04:56:10;10.27;;;9.40;;
3865;SDS011;1948;53.250;10.412;2022-09-09T04:58:41;14.63;;;9.77;;
3865;SDS011;1948;53.250;10.412;2022-09-09T05:03:44;9.10;;;8.57;;
3865;SDS011;1948;53.250;10.412;2022-09-09T05:06:13;10.40;;;9.50;;
3865;SDS011;1948;53.250;10.412;2022-09-09T05:08:45;9.10;;;8.20;;
3865;SDS011;1948;53.250;10.412;2022-09-09T05:11:22;16.40;;;9.20;;
3865;SDS011;1948;53.250;10.412;2022-09-09T05:13:53;13.23;;;9.93;;
3865;SDS011;1948;53.250;10.412;2022-09-09T05:16:26;10.13;;;8.97;;
3865;SDS011;1948;53.250;10.412;2022-09-09T05:18:53;10.27;;;9.27;;
3865;SDS011;1948;53.250;10.412;2022-09-09T05:21:21;20.13;;;8.53;;
3865;SDS011;1948;53.250;10.412;2022-09-09T05:23:52;11.73;;;9.13;;
3865;SDS011;1948;53.250;10.412;2022-09-09T05:26:20;9.37;;;8.50;;
3865;SDS011;1948;53.250;10.412;2022-09-09T05:28:48;10.60;;;8.93;;
3865;SDS011;1948;53.250;10.412;2022-09-09T05:31:16;9.27;;;8.50;;
3865;SDS011;1948;53.250;10.412;2022-09-09T05:33:56;9.30;;;8.60;;
3865;SDS011;1948;53.250;10.412;2022-09-09T05:36:23;9.70;;;8.07;;
3865;SDS011;1948;53.250;10.412;2022-09-09T05:38:50;8.00;;;7.30;;
3865;SDS011;1948;53.250;10.412;2022-09-09T05:41:17;9.40;;;7.80;;
3865;SDS011;1948;53.250;10.412;2022-09-09T05:43:44;9.63;;;7.60;;
3865;SDS011;1948;53.250;10.412;2022-09-09T05:46:17;10.70;;;7.67;;
3865;SDS011;1948;53.250;10.412;2022-09-09T05:48:47;7.00;;;6.37;;
3865;SDS011;1948;53.250;10.412;2022-09-09T05:51:22;10.87;;;6.87;;
3865;SDS011;1948;53.250;10.412;2022-09-09T05:53:54;7.00;;;6.30;;
3865;SDS011;1948;53.250;10.412;2022-09-09T05:56:29;11.37;;;5.87;;
3865;SDS011;1948;53.250;10.412;2022-09-09T05:59:01;6.77;;;5.53;;
3865;SDS011;1948;53.250;10.412;2022-09-09T06:01:29;5.57;;;5.10;;
3865;SDS011;1948;53.250;10.412;2022-09-09T06:03:59;12.27;;;5.73;;
3865;SDS011;1948;53.250;10.412;2022-09-09T06:06:27;6.13;;;5.63;;
3865;SDS011;1948;53.250;10.412;2022-09-09T06:09:03;10.13;;;5.03;;
3865;SDS011;1948;53.250;10.412;2022-09-09T06:11:38;6.57;;;5.33;;
3865;SDS011;1948;53.250;10.412;2022-09-09T06:14:08;5.53;;;5.17;;
3865;SDS011;1948;53.250;10.412;2022-09-09T06:16:35;5.60;;;5.00;;
3865;SDS011;1948;53.250;10.412;2022-09-09T06:19:04;13.97;;;5.37;;
3865;SDS011;1948;53.250;10.412;2022-09-09T06:21:34;8.87;;;5.57;;
3865;SDS011;1948;53.250;10.412;2022-09-09T06:24:07;5.60;;;5.00;;
3865;SDS011;1948;53.250;10.412;2022-09-09T06:26:38;7.40;;;5.20;;
3865;SDS011;1948;53.250;10.412;2022-09-09T06:29:07;8.63;;;4.60;;
3865;SDS011;1948;53.250;10.412;2022-09-09T06:31:35;5.70;;;4.03;;
3865;SDS011;1948;53.250;10.412;2022-09-09T06:34:06;5.93;;;4.30;;
3865;SDS011;1948;53.250;10.412;2022-09-09T06:36:35;4.53;;;4.23;;
3865;SDS011;1948;53.250;10.412;2022-09-09T06:39:05;16.97;;;4.63;;
3865;SDS011;1948;53.250;10.412;2022-09-09T06:41:39;6.80;;;4.30;;
3865;SDS011;1948;53.250;10.412;2022-09-09T06:44:11;10.70;;;4.90;;
3865;SDS011;1948;53.250;10.412;2022-09-09T06:46:38;5.40;;;4.03;;
3865;SDS011;1948;53.250;10.412;2022-09-09T06:49:08;4.83;;;4.53;;
3865;SDS011;1948;53.250;10.412;2022-09-09T06:51:36;6.30;;;4.50;;
3865;SDS011;1948;53.250;10.412;2022-09-09T06:54:10;7.93;;;4.20;;
3865;SDS011;1948;53.250;10.412;2022-09-09T06:56:38;4.60;;;4.20;;
3865;SDS011;1948;53.250;10.412;2022-09-09T06:59:11;5.47;;;3.67;;
3865;SDS011;1948;53.250;10.412;2022-09-09T07:01:42;6.10;;;3.93;;
3865;SDS011;1948;53.250;10.412;2022-09-09T07:04:21;3.97;;;3.77;;
3865;SDS011;1948;53.250;10.412;2022-09-09T07:06:48;13.13;;;3.73;;
3865;SDS011;1948;53.250;10.412;2022-09-09T07:09:15;3.20;;;3.00;;
3865;SDS011;1948;53.250;10.412;2022-09-09T07:11:43;7.53;;;3.70;;
3865;SDS011;1948;53.250;10.412;2022-09-09T07:14:19;9.23;;;3.60;;
3865;SDS011;1948;53.250;10.412;2022-09-09T07:16:46;3.10;;;2.90;;
3865;SDS011;1948;53.250;10.412;2022-09-09T07:19:16;3.80;;;3.00;;
3865;SDS011;1948;53.250;10.412;2022-09-09T07:21:43;3.73;;;3.23;;
3865;SDS011;1948;53.250;10.412;2022-09-09T07:24:13;4.40;;;2.97;;
3865;SDS011;1948;53.250;10.412;2022-09-09T07:26:45;5.97;;;3.00;;
3865;SDS011;1948;53.250;10.412;2022-09-09T07:29:12;4.77;;;2.83;;
3865;SDS011;1948;53.250;10.412;2022-09-09T07:31:45;2.90;;;2.70;;
3865;SDS011;1948;53.250;10.412;2022-09-09T07:34:12;3.27;;;3.00;;
3865;SDS011;1948;53.250;10.412;2022-09-09T07:36:39;4.63;;;3.37;;
3865;SDS011;1948;53.250;10.412;2022-09-09T07:39:11;5.13;;;2.80;;
3865;SDS011;1948;53.250;10.412;2022-09-09T07:41:41;2.43;;;2.30;;
3865;SDS011;1948;53.250;10.412;2022-09-09T07:44:16;5.00;;;3.33;;
3865;SDS011;1948;53.250;10.412;2022-09-09T07:46:47;2.53;;;2.30;;
3865;SDS011;1948;53.250;10.412;2022-09-09T07:49:17;2.40;;;2.20;;
3865;SDS011;1948;53.250;10.412;2022-09-09T07:51:52;3.17;;;2.60;;
3865;SDS011;1948;53.250;10.412;2022-09-09T07:54:19;1.97;;;1.83;;
3865;SDS011;1948;53.250;10.412;2022-09-09T07:56:50;2.60;;;2.40;;
3865;SDS011;1948;53.250;10.412;2022-09-09T07:59:18;2.80;;;2.60;;
3865;SDS011;1948;53.250;10.412;2022-09-09T08:01:45;7.87;;;2.33;;
3865;SDS011;1948;53.250;10.412;2022-09-09T08:04:21;2.33;;;2.30;;
3865;SDS011;1948;53.250;10.412;2022-09-09T08:06:58;2.27;;;2.17;;
3865;SDS011;1948;53.250;10.412;2022-09-09T08:09:31;2.97;;;2.30;;
3865;SDS011;1948;53.250;10.412;2022-09-09T08:12:00;3.60;;;2.17;;
3865;SDS011;1948;53.250;10.412;2022-09-09T08:14:35;2.00;;;1.90;;
3865;SDS011;1948;53.250;10.412;2022-09-09T08:17:02;2.40;;;2.30;;
3865;SDS011;1948;53.250;10.412;2022-09-09T08:19:31;2.47;;;2.03;;
3865;SDS011;1948;53.250;10.412;2022-09-09T08:22:03;7.27;;;3.40;;
3865;SDS011;1948;53.250;10.412;2022-09-09T08:24:33;3.97;;;2.50;;
3865;SDS011;1948;53.250;10.412;2022-09-09T08:27:02;4.00;;;3.00;;
3865;SDS011;1948;53.250;10.412;2022-09-09T08:29:32;3.47;;;3.17;;
3865;SDS011;1948;53.250;10.412;2022-09-09T08:32:03;5.63;;;3.37;;
3865;SDS011;1948;53.250;10.412;2022-09-09T08:34:30;2.90;;;2.40;;
3865;SDS011;1948;53.250;10.412;2022-09-09T08:36:58;3.33;;;2.60;;
3865;SDS011;1948;53.250;10.412;2022-09-09T08:39:32;2.77;;;2.20;;
3865;SDS011;1948;53.250;10.412;2022-09-09T08:50:38;2.80;;;2.37;;
3865;SDS011;1948;53.250;10.412;2022-09-09T08:53:17;3.17;;;2.60;;
3865;SDS011;1948;53.250;10.412;2022-09-09T08:58:29;8.87;;;2.37;;
3865;SDS011;1948;53.250;10.412;2022-09-09T09:03:48;2.90;;;2.50;;
3865;SDS011;1948;53.250;10.412;2022-09-09T09:11:51;2.03;;;1.93;;
3865;SDS011;1948;53.250;10.412;2022-09-09T09:14:34;6.30;;;1.83;;
3865;SDS011;1948;53.250;10.412;2022-09-09T09:17:04;6.97;;;2.30;;
3865;SDS011;1948;53.250;10.412;2022-09-09T09:19:39;3.63;;;2.20;;
3865;SDS011;1948;53.250;10.412;2022-09-09T09:22:30;2.47;;;2.10;;
3865;SDS011;1948;53.250;10.412;2022-09-09T09:36:25;3.33;;;2.10;;
3865;SDS011;1948;53.250;10.412;2022-09-09T09:39:04;5.90;;;2.50;;
3865;SDS011;1948;53.250;10.412;2022-09-09T09:41:56;25.70;;;2.20;;
3865;SDS011;1948;53.250;10.412;2022-09-09T09:44:30;4.87;;;2.40;;
3865;SDS011;1948;53.250;10.412;2022-09-09T09:49:54;6.23;;;2.53;;
3865;SDS011;1948;53.250;10.412;2022-09-09T09:52:25;3.53;;;2.10;;
3865;SDS011;1948;53.250;10.412;2022-09-09T09:54:55;7.83;;;2.40;;
3865;SDS011;1948;53.250;10.412;2022-09-09T09:57:32;4.30;;;2.00;;
3865;SDS011;1948;53.250;10.412;2022-09-09T10:02:41;1.87;;;1.77;;
3865;SDS011;1948;53.250;10.412;2022-09-09T10:05:17;8.97;;;2.20;;
3865;SDS011;1948;53.250;10.412;2022-09-09T10:08:08;6.10;;;3.00;;
3865;SDS011;1948;53.250;10.412;2022-09-09T10:13:11;3.77;;;1.80;;
3865;SDS011;1948;53.250;10.412;2022-09-09T10:19:13;1.80;;;1.70;;
3865;SDS011;1948;53.250;10.412;2022-09-09T10:24:25;2.77;;;1.70;;
3865;SDS011;1948;53.250;10.412;2022-09-09T10:27:28;4.93;;;2.07;;
3865;SDS011;1948;53.250;10.412;2022-09-09T10:30:19;4.13;;;1.67;;
3865;SDS011;1948;53.250;10.412;2022-09-09T10:35:30;3.33;;;2.40;;
3865;SDS011;1948;53.250;10.412;2022-09-09T10:38:18;7.10;;;1.93;;
3865;SDS011;1948;53.250;10.412;2022-09-09T10:44:18;2.00;;;1.40;;
3865;SDS011;1948;53.250;10.412;2022-09-09T10:55:23;5.30;;;1.77;;
3865;SDS011;1948;53.250;10.412;2022-09-09T10:58:02;3.67;;;1.60;;
3865;SDS011;1948;53.250;10.412;2022-09-09T11:03:17;3.23;;;1.50;;
3865;SDS011;1948;53.250;10.412;2022-09-09T11:08:24;1.87;;;1.60;;
3865;SDS011;1948;53.250;10.412;2022-09-09T11:16:46;1.50;;;1.40;;
3865;SDS011;1948;53.250;10.412;2022-09-09T11:42:46;4.73;;;1.97;;
3865;SDS011;1948;53.250;10.412;2022-09-09T11:47:54;3.13;;;2.00;;
3865;SDS011;1948;53.250;10.412;2022-09-09T11:53:03;8.33;;;2.93;;
3865;SDS011;1948;53.250;10.412;2022-09-09T11:55:47;5.00;;;2.20;;
3865;SDS011;1948;53.250;10.412;2022-09-09T11:58:25;2.33;;;2.10;;
3865;SDS011;1948;53.250;10.412;2022-09-09T12:00:58;5.60;;;2.40;;
3865;SDS011;1948;53.250;10.412;2022-09-09T12:08:51;4.50;;;2.80;;
3865;SDS011;1948;53.250;10.412;2022-09-09T12:11:24;2.93;;;2.67;;
3865;SDS011;1948;53.250;10.412;2022-09-09T12:13:57;4.23;;;1.90;;
3865;SDS011;1948;53.250;10.412;2022-09-09T12:16:35;16.13;;;2.60;;
3865;SDS011;1948;53.250;10.412;2022-09-09T12:21:58;13.83;;;3.10;;
3865;SDS011;1948;53.250;10.412;2022-09-09T12:24:59;2.77;;;2.57;;
3865;SDS011;1948;53.250;10.412;2022-09-09T12:36:48;7.40;;;2.30;;
3865;SDS011;1948;53.250;10.412;2022-09-09T12:39:34;4.93;;;2.30;;
3865;SDS011;1948;53.250;10.412;2022-09-09T12:42:19;2.93;;;2.70;;
3865;SDS011;1948;53.250;10.412;2022-09-09T12:45:14;3.20;;;2.40;;
3865;SDS011;1948;53.250;10.412;2022-09-09T12:47:53;2.50;;;2.30;;
3865;SDS011;1948;53.250;10.412;2022-09-09T12:50:34;4.27;;;2.33;;
3865;SDS011;1948;53.250;10.412;2022-09-09T12:53:47;2.80;;;2.53;;
3865;SDS011;1948;53.250;10.412;2022-09-09T12:55:59;2.20;;;2.10;;
3865;SDS011;1948;53.250;10.412;2022-09-09T12:58:35;1.73;;;1.63;;
3865;SDS011;1948;53.250;10.412;2022-09-09T13:01:05;1.97;;;1.47;;
3865;SDS011;1948;53.250;10.412;2022-09-09T13:03:47;1.50;;;1.40;;
3865;SDS011;1948;53.250;10.412;2022-09-09T13:06:24;9.00;;;1.60;;
3865;SDS011;1948;53.250;10.412;2022-09-09T13:09:01;2.73;;;1.80;;
3865;SDS011;1948;53.250;10.412;2022-09-09T13:11:30;1.47;;;1.37;;
3865;SDS011;1948;53.250;10.412;2022-09-09T13:14:16;2.67;;;1.70;;
3865;SDS011;1948;53.250;10.412;2022-09-09T13:16:58;1.43;;;1.10;;
3865;SDS011;1948;53.250;10.412;2022-09-09T13:19:29;3.07;;;1.60;;
3865;SDS011;1948;53.250;10.412;2022-09-09T13:27:39;1.70;;;1.60;;
3865;SDS011;1948;53.250;10.412;2022-09-09T13:33:05;3.90;;;1.90;;
3865;SDS011;1948;53.250;10.412;2022-09-09T13:35:33;2.43;;;2.20;;
3865;SDS011;1948;53.250;10.412;2022-09-09T13:38:08;7.40;;;2.40;;
3865;SDS011;1948;53.250;10.412;2022-09-09T13:40:35;4.93;;;2.00;;
3865;SDS011;1948;53.250;10.412;2022-09-09T13:43:04;4.33;;;2.07;;
3865;SDS011;1948;53.250;10.412;2022-09-09T13:45:52;5.23;;;2.43;;
3865;SDS011;1948;53.250;10.412;2022-09-09T13:48:27;5.00;;;2.53;;
3865;SDS011;1948;53.250;10.412;2022-09-09T13:51:02;6.07;;;2.53;;
3865;SDS011;1948;53.250;10.412;2022-09-09T13:54:09;3.47;;;2.70;;
3865;SDS011;1948;53.250;10.412;2022-09-09T13:56:37;4.20;;;3.50;;
3865;SDS011;1948;53.250;10.412;2022-09-09T13:59:11;2.87;;;2.77;;
3865;SDS011;1948;53.250;10.412;2022-09-09T14:01:42;5.97;;;4.20;;
3865;SDS011;1948;53.250;10.412;2022-09-09T14:04:10;6.20;;;3.63;;
3865;SDS011;1948;53.250;10.412;2022-09-09T14:06:38;2.60;;;2.40;;
3865;SDS011;1948;53.250;10.412;2022-09-09T14:09:06;4.63;;;1.90;;
3865;SDS011;1948;53.250;10.412;2022-09-09T14:11:39;6.17;;;1.60;;
3865;SDS011;1948;53.250;10.412;2022-09-09T14:14:07;6.90;;;2.40;;
3865;SDS011;1948;53.250;10.412;2022-09-09T14:16:34;3.90;;;2.60;;
3865;SDS011;1948;53.250;10.412;2022-09-09T14:19:01;1.90;;;1.80;;
3865;SDS011;1948;53.250;10.412;2022-09-09T14:21:30;2.77;;;2.00;;
3865;SDS011;1948;53.250;10.412;2022-09-09T14:23:58;1.67;;;1.30;;
3865;SDS011;1948;53.250;10.412;2022-09-09T14:26:25;1.70;;;1.60;;
3865;SDS011;1948;53.250;10.412;2022-09-09T14:28:56;1.90;;;1.80;;
3865;SDS011;1948;53.250;10.412;2022-09-09T14:31:23;6.13;;;1.70;;
3865;SDS011;1948;53.250;10.412;2022-09-09T14:33:53;0.80;;;0.80;;
3865;SDS011;1948;53.250;10.412;2022-09-09T14:36:20;2.63;;;1.33;;
3865;SDS011;1948;53.250;10.412;2022-09-09T14:38:47;4.53;;;1.30;;
3865;SDS011;1948;53.250;10.412;2022-09-09T14:41:15;1.30;;;1.10;;
3865;SDS011;1948;53.250;10.412;2022-09-09T14:43:46;10.63;;;1.20;;
3865;SDS011;1948;53.250;10.412;2022-09-09T14:46:14;2.03;;;1.27;;
3865;SDS011;1948;53.250;10.412;2022-09-09T14:48:45;3.40;;;1.90;;
3865;SDS011;1948;53.250;10.412;2022-09-09T14:51:16;1.80;;;1.40;;
3865;SDS011;1948;53.250;10.412;2022-09-09T14:53:51;8.23;;;2.53;;
3865;SDS011;1948;53.250;10.412;2022-09-09T14:56:20;1.70;;;1.60;;
3865;SDS011;1948;53.250;10.412;2022-09-09T14:58:52;9.20;;;1.43;;
3865;SDS011;1948;53.250;10.412;2022-09-09T15:01:21;5.80;;;1.73;;
3865;SDS011;1948;53.250;10.412;2022-09-09T15:03:54;6.43;;;1.70;;
3865;SDS011;1948;53.250;10.412;2022-09-09T15:06:33;1.47;;;1.47;;
3865;SDS011;1948;53.250;10.412;2022-09-09T15:09:02;2.87;;;1.67;;
3865;SDS011;1948;53.250;10.412;2022-09-09T15:11:33;2.77;;;1.63;;
3865;SDS011;1948;53.250;10.412;2022-09-09T15:14:08;2.70;;;2.10;;
3865;SDS011;1948;53.250;10.412;2022-09-09T15:16:38;2.73;;;2.17;;
3865;SDS011;1948;53.250;10.412;2022-09-09T15:19:06;5.33;;;1.80;;
3865;SDS011;1948;53.250;10.412;2022-09-09T15:21:36;4.77;;;1.60;;
3865;SDS011;1948;53.250;10.412;2022-09-09T15:24:08;3.10;;;2.53;;
3865;SDS011;1948;53.250;10.412;2022-09-09T15:26:39;6.33;;;2.20;;
3865;SDS011;1948;53.250;10.412;2022-09-09T15:29:06;2.93;;;2.60;;
3865;SDS011;1948;53.250;10.412;2022-09-09T15:31:34;6.60;;;4.60;;
3865;SDS011;1948;53.250;10.412;2022-09-09T15:34:03;14.27;;;5.17;;
3865;SDS011;1948;53.250;10.412;2022-09-09T15:36:36;8.23;;;7.37;;
3865;SDS011;1948;53.250;10.412;2022-09-09T15:39:10;6.63;;;5.90;;
3865;SDS011;1948;53.250;10.412;2022-09-09T15:41:39;6.77;;;3.63;;
3865;SDS011;1948;53.250;10.412;2022-09-09T15:44:06;4.83;;;4.50;;
3865;SDS011;1948;53.250;10.412;2022-09-09T15:46:39;4.33;;;2.87;;
3865;SDS011;1948;53.250;10.412;2022-09-09T15:49:13;5.53;;;2.67;;
3865;SDS011;1948;53.250;10.412;2022-09-09T15:51:52;3.90;;;2.43;;
3865;SDS011;1948;53.250;10.412;2022-09-09T15:54:22;3.97;;;2.93;;
3865;SDS011;1948;53.250;10.412;2022-09-09T15:56:57;9.20;;;3.40;;
3865;SDS011;1948;53.250;10.412;2022-09-09T15:59:27;9.10;;;3.23;;
3865;SDS011;1948;53.250;10.412;2022-09-09T16:01:56;4.70;;;3.00;;
3865;SDS011;1948;53.250;10.412;2022-09-09T16:04:24;5.07;;;2.80;;
3865;SDS011;1948;53.250;10.412;2022-09-09T16:06:58;7.80;;;3.20;;
3865;SDS011;1948;53.250;10.412;2022-09-09T16:09:27;3.33;;;3.13;;
3865;SDS011;1948;53.250;10.412;2022-09-09T16:11:56;3.83;;;3.20;;
3865;SDS011;1948;53.250;10.412;2022-09-09T16:14:25;3.97;;;3.63;;
3865;SDS011;1948;53.250;10.412;2022-09-09T16:16:52;6.67;;;5.03;;
3865;SDS011;1948;53.250;10.412;2022-09-09T16:19:19;5.50;;;3.80;;
3865;SDS011;1948;53.250;10.412;2022-09-09T16:21:47;5.27;;;4.37;;
3865;SDS011;1948;53.250;10.412;2022-09-09T16:24:18;6.50;;;3.47;;
3865;SDS011;1948;53.250;10.412;2022-09-09T16:26:50;9.70;;;2.77;;
3865;SDS011;1948;53.250;10.412;2022-09-09T16:29:20;6.20;;;3.47;;
3865;SDS011;1948;53.250;10.412;2022-09-09T16:31:48;7.60;;;3.10;;
3865;SDS011;1948;53.250;10.412;2022-09-09T16:34:16;3.60;;;3.30;;
3865;SDS011;1948;53.250;10.412;2022-09-09T16:36:49;8.07;;;4.73;;
3865;SDS011;1948;53.250;10.412;2022-09-09T16:39:19;5.20;;;3.20;;
3865;SDS011;1948;53.250;10.412;2022-09-09T16:41:46;2.73;;;2.53;;
3865;SDS011;1948;53.250;10.412;2022-09-09T16:44:15;2.60;;;2.30;;
3865;SDS011;1948;53.250;10.412;2022-09-09T16:46:45;3.10;;;2.80;;
3865;SDS011;1948;53.250;10.412;2022-09-09T16:49:15;3.87;;;3.30;;
3865;SDS011;1948;53.250;10.412;2022-09-09T16:51:45;4.87;;;3.33;;
3865;SDS011;1948;53.250;10.412;2022-09-09T16:54:15;3.20;;;2.93;;
3865;SDS011;1948;53.250;10.412;2022-09-09T16:56:46;12.43;;;3.70;;
3865;SDS011;1948;53.250;10.412;2022-09-09T16:59:20;11.33;;;3.90;;
3865;SDS011;1948;53.250;10.412;2022-09-09T17:01:49;3.87;;;3.17;;
3865;SDS011;1948;53.250;10.412;2022-09-09T17:04:22;4.63;;;4.23;;
3865;SDS011;1948;53.250;10.412;2022-09-09T17:06:54;5.00;;;3.60;;
3865;SDS011;1948;53.250;10.412;2022-09-09T17:09:25;12.23;;;3.77;;
3865;SDS011;1948;53.250;10.412;2022-09-09T17:11:55;7.17;;;3.33;;
3865;SDS011;1948;53.250;10.412;2022-09-09T17:14:23;4.20;;;2.43;;
3865;SDS011;1948;53.250;10.412;2022-09-09T17:16:52;2.83;;;2.60;;
3865;SDS011;1948;53.250;10.412;2022-09-09T17:19:19;2.23;;;2.03;;
3865;SDS011;1948;53.250;10.412;2022-09-09T17:21:46;5.27;;;2.87;;
3865;SDS011;1948;53.250;10.412;2022-09-09T17:24:33;6.77;;;3.63;;
3865;SDS011;1948;53.250;10.412;2022-09-09T17:27:06;9.20;;;3.77;;
3865;SDS011;1948;53.250;10.412;2022-09-09T17:29:35;6.90;;;3.80;;
3865;SDS011;1948;53.250;10.412;2022-09-09T17:32:07;3.40;;;3.10;;
3865;SDS011;1948;53.250;10.412;2022-09-09T17:34:34;6.60;;;4.10;;
3865;SDS011;1948;53.250;10.412;2022-09-09T17:37:01;6.90;;;4.00;;
3865;SDS011;1948;53.250;10.412;2022-09-09T17:39:32;5.93;;;3.63;;
3865;SDS011;1948;53.250;10.412;2022-09-09T17:41:59;4.90;;;4.27;;
3865;SDS011;1948;53.250;10.412;2022-09-09T17:44:26;4.80;;;4.37;;
3865;SDS011;1948;53.250;10.412;2022-09-09T17:46:55;4.43;;;4.03;;
3865;SDS011;1948;53.250;10.412;2022-09-09T17:49:25;5.30;;;4.80;;
3865;SDS011;1948;53.250;10.412;2022-09-09T17:51:55;10.03;;;5.40;;
3865;SDS011;1948;53.250;10.412;2022-09-09T17:54:22;4.97;;;4.67;;
3865;SDS011;1948;53.250;10.412;2022-09-09T17:56:52;13.77;;;12.37;;
3865;SDS011;1948;53.250;10.412;2022-09-09T17:59:19;5.93;;;5.10;;
3865;SDS011;1948;53.250;10.412;2022-09-09T18:01:50;6.73;;;5.80;;
3865;SDS011;1948;53.250;10.412;2022-09-09T18:04:18;10.30;;;6.53;;
3865;SDS011;1948;53.250;10.412;2022-09-09T18:06:46;6.47;;;5.87;;
3865;SDS011;1948;53.250;10.412;2022-09-09T18:09:22;6.50;;;5.30;;
3865;SDS011;1948;53.250;10.412;2022-09-09T18:11:59;9.00;;;5.77;;
3865;SDS011;1948;53.250;10.412;2022-09-09T18:14:32;6.90;;;6.03;;
3865;SDS011;1948;53.250;10.412;2022-09-09T18:17:01;10.17;;;7.90;;
3865;SDS011;1948;53.250;10.412;2022-09-09T18:19:36;18.77;;;7.13;;
3865;SDS011;1948;53.250;10.412;2022-09-09T18:22:03;6.63;;;6.10;;
3865;SDS011;1948;53.250;10.412;2022-09-09T18:24:31;5.70;;;5.27;;
3865;SDS011;1948;53.250;10.412;2022-09-09T18:26:59;5.73;;;5.07;;
3865;SDS011;1948;53.250;10.412;2022-09-09T18:29:26;13.73;;;4.77;;
3865;SDS011;1948;53.250;10.412;2022-09-09T18:31:53;5.47;;;5.07;;